Jose Bonifacio, Brazil
Current Conditions -  °F | °C
As of 4:30 PM on Friday 24 Oct 2014 (Local Time) from SBSR Reporting Station
Thunderstorm Thunderstorm  
Wind Chill: 81°   Ceiling: 4500
Heat Index: 81°   Visibility: 6mi
Dew Point: 61°   Wind: 12mph
Humidity: 51%   Direction: 360°N
Pressure: NA   Gusts: 23mph
Location:  21.05°S, 49.69°W
Report Text: SBSR 241830Z 36010G20KT 9999 2000N TSRA FEW040CB BKN045 27/16 Q1012
Loading
Personal Weather Stations






























Interactive Weather Map
Tropical Storm Tracking
New forecast layout! Learn more

10-Day Weather Forecast

Advertisements
Track Severe Weather on mobile